sensor_id;sensor_type;location;lat;lon;timestamp;P1;durP1;ratioP1;P2;durP2;ratioP2
60344;SDS011;46188;52.324;8.032;2023-03-24T00:01:44;3.85;;;1.92;;
60344;SDS011;46188;52.324;8.032;2023-03-24T00:04:09;5.88;;;2.20;;
60344;SDS011;46188;52.324;8.032;2023-03-24T00:06:34;5.25;;;1.92;;
60344;SDS011;46188;52.324;8.032;2023-03-24T00:09:00;7.95;;;2.63;;
60344;SDS011;46188;52.324;8.032;2023-03-24T00:11:30;5.13;;;2.30;;
60344;SDS011;46188;52.324;8.032;2023-03-24T00:13:59;4.20;;;3.03;;
60344;SDS011;46188;52.324;8.032;2023-03-24T00:16:25;3.38;;;2.17;;
60344;SDS011;46188;52.324;8.032;2023-03-24T00:18:50;3.75;;;1.90;;
60344;SDS011;46188;52.324;8.032;2023-03-24T00:21:19;7.90;;;2.65;;
60344;SDS011;46188;52.324;8.032;2023-03-24T00:23:46;5.97;;;2.38;;
60344;SDS011;46188;52.324;8.032;2023-03-24T00:26:13;5.28;;;2.42;;
60344;SDS011;46188;52.324;8.032;2023-03-24T00:28:41;6.70;;;2.17;;
60344;SDS011;46188;52.324;8.032;2023-03-24T00:31:12;4.78;;;2.25;;
60344;SDS011;46188;52.324;8.032;2023-03-24T00:33:40;5.85;;;2.80;;
60344;SDS011;46188;52.324;8.032;2023-03-24T00:36:07;6.07;;;2.70;;
60344;SDS011;46188;52.324;8.032;2023-03-24T00:38:37;6.00;;;2.50;;
60344;SDS011;46188;52.324;8.032;2023-03-24T00:41:04;4.85;;;2.38;;
60344;SDS011;46188;52.324;8.032;2023-03-24T00:43:31;4.45;;;2.53;;
60344;SDS011;46188;52.324;8.032;2023-03-24T00:46:01;5.53;;;2.35;;
60344;SDS011;46188;52.324;8.032;2023-03-24T00:48:29;6.53;;;2.33;;
60344;SDS011;46188;52.324;8.032;2023-03-24T00:50:55;5.70;;;2.50;;
60344;SDS011;46188;52.324;8.032;2023-03-24T00:53:21;3.75;;;2.20;;
60344;SDS011;46188;52.324;8.032;2023-03-24T00:55:53;7.50;;;2.53;;
60344;SDS011;46188;52.324;8.032;2023-03-24T00:58:19;3.67;;;2.22;;
60344;SDS011;46188;52.324;8.032;2023-03-24T01:00:48;4.65;;;2.40;;
60344;SDS011;46188;52.324;8.032;2023-03-24T01:03:19;4.00;;;2.10;;
60344;SDS011;46188;52.324;8.032;2023-03-24T01:05:58;6.00;;;2.38;;
60344;SDS011;46188;52.324;8.032;2023-03-24T01:08:25;6.35;;;2.60;;
60344;SDS011;46188;52.324;8.032;2023-03-24T01:10:52;5.50;;;2.75;;
60344;SDS011;46188;52.324;8.032;2023-03-24T01:13:18;4.15;;;2.22;;
60344;SDS011;46188;52.324;8.032;2023-03-24T01:15:45;5.50;;;2.40;;
60344;SDS011;46188;52.324;8.032;2023-03-24T01:18:11;8.80;;;2.50;;
60344;SDS011;46188;52.324;8.032;2023-03-24T01:20:38;8.30;;;3.00;;
60344;SDS011;46188;52.324;8.032;2023-03-24T01:23:05;4.18;;;2.28;;
60344;SDS011;46188;52.324;8.032;2023-03-24T01:25:32;4.45;;;2.30;;
60344;SDS011;46188;52.324;8.032;2023-03-24T01:28:01;5.32;;;2.60;;
60344;SDS011;46188;52.324;8.032;2023-03-24T01:30:27;4.32;;;2.38;;
60344;SDS011;46188;52.324;8.032;2023-03-24T01:32:53;5.00;;;2.63;;
60344;SDS011;46188;52.324;8.032;2023-03-24T01:35:20;8.40;;;2.88;;
60344;SDS011;46188;52.324;8.032;2023-03-24T01:37:46;4.13;;;2.40;;
60344;SDS011;46188;52.324;8.032;2023-03-24T01:40:22;3.30;;;2.20;;
60344;SDS011;46188;52.324;8.032;2023-03-24T01:42:49;5.97;;;2.67;;
60344;SDS011;46188;52.324;8.032;2023-03-24T01:48:02;4.32;;;2.45;;
60344;SDS011;46188;52.324;8.032;2023-03-24T01:50:29;5.00;;;3.17;;
60344;SDS011;46188;52.324;8.032;2023-03-24T01:52:56;3.53;;;2.90;;
60344;SDS011;46188;52.324;8.032;2023-03-24T01:55:22;4.00;;;2.90;;
60344;SDS011;46188;52.324;8.032;2023-03-24T01:57:50;3.72;;;2.55;;
60344;SDS011;46188;52.324;8.032;2023-03-24T02:00:20;3.72;;;2.65;;
60344;SDS011;46188;52.324;8.032;2023-03-24T02:02:50;4.15;;;2.70;;
60344;SDS011;46188;52.324;8.032;2023-03-24T02:05:20;3.55;;;2.63;;
60344;SDS011;46188;52.324;8.032;2023-03-24T02:07:53;5.25;;;2.65;;
60344;SDS011;46188;52.324;8.032;2023-03-24T02:10:26;3.38;;;2.45;;
60344;SDS011;46188;52.324;8.032;2023-03-24T02:12:55;4.88;;;2.75;;
60344;SDS011;46188;52.324;8.032;2023-03-24T02:15:20;3.58;;;2.17;;
60344;SDS011;46188;52.324;8.032;2023-03-24T02:23:16;3.30;;;2.40;;
60344;SDS011;46188;52.324;8.032;2023-03-24T02:31:47;3.00;;;1.98;;
60344;SDS011;46188;52.324;8.032;2023-03-24T02:45:00;4.05;;;2.40;;
60344;SDS011;46188;52.324;8.032;2023-03-24T02:47:45;4.50;;;2.67;;
60344;SDS011;46188;52.324;8.032;2023-03-24T02:50:24;2.90;;;2.10;;
60344;SDS011;46188;52.324;8.032;2023-03-24T02:52:59;4.72;;;2.38;;
60344;SDS011;46188;52.324;8.032;2023-03-24T02:55:35;3.60;;;2.47;;
60344;SDS011;46188;52.324;8.032;2023-03-24T02:58:10;3.10;;;2.05;;
60344;SDS011;46188;52.324;8.032;2023-03-24T03:00:44;5.78;;;2.50;;
60344;SDS011;46188;52.324;8.032;2023-03-24T03:03:16;3.78;;;2.10;;
60344;SDS011;46188;52.324;8.032;2023-03-24T03:08:19;4.00;;;2.17;;
60344;SDS011;46188;52.324;8.032;2023-03-24T03:10:47;3.55;;;2.25;;
60344;SDS011;46188;52.324;8.032;2023-03-24T03:13:15;4.50;;;2.33;;
60344;SDS011;46188;52.324;8.032;2023-03-24T03:15:50;4.28;;;1.95;;
60344;SDS011;46188;52.324;8.032;2023-03-24T03:18:24;4.82;;;2.30;;
60344;SDS011;46188;52.324;8.032;2023-03-24T03:20:58;3.45;;;2.03;;
60344;SDS011;46188;52.324;8.032;2023-03-24T03:23:29;3.33;;;2.70;;
60344;SDS011;46188;52.324;8.032;2023-03-24T03:26:01;3.50;;;2.20;;
60344;SDS011;46188;52.324;8.032;2023-03-24T03:28:29;6.13;;;2.55;;
60344;SDS011;46188;52.324;8.032;2023-03-24T03:30:57;2.88;;;2.28;;
60344;SDS011;46188;52.324;8.032;2023-03-24T03:33:28;4.43;;;2.38;;
60344;SDS011;46188;52.324;8.032;2023-03-24T03:36:08;3.78;;;2.63;;
60344;SDS011;46188;52.324;8.032;2023-03-24T03:38:56;3.45;;;2.30;;
60344;SDS011;46188;52.324;8.032;2023-03-24T03:41:31;6.28;;;2.90;;
60344;SDS011;46188;52.324;8.032;2023-03-24T03:43:56;5.10;;;2.75;;
60344;SDS011;46188;52.324;8.032;2023-03-24T03:46:21;3.67;;;2.55;;
60344;SDS011;46188;52.324;8.032;2023-03-24T03:48:47;5.05;;;2.40;;
60344;SDS011;46188;52.324;8.032;2023-03-24T03:51:12;8.20;;;2.80;;
60344;SDS011;46188;52.324;8.032;2023-03-24T03:53:41;3.25;;;2.70;;
60344;SDS011;46188;52.324;8.032;2023-03-24T03:56:10;3.17;;;2.65;;
60344;SDS011;46188;52.324;8.032;2023-03-24T03:58:36;4.32;;;2.78;;
60344;SDS011;46188;52.324;8.032;2023-03-24T04:01:03;3.15;;;2.58;;
60344;SDS011;46188;52.324;8.032;2023-03-24T04:03:34;3.65;;;2.50;;
60344;SDS011;46188;52.324;8.032;2023-03-24T04:06:14;3.58;;;2.35;;
60344;SDS011;46188;52.324;8.032;2023-03-24T04:14:17;3.60;;;3.13;;
60344;SDS011;46188;52.324;8.032;2023-03-24T04:22:24;3.60;;;2.92;;
60344;SDS011;46188;52.324;8.032;2023-03-24T04:25:12;3.80;;;2.92;;
60344;SDS011;46188;52.324;8.032;2023-03-24T04:27:46;4.55;;;3.20;;
60344;SDS011;46188;52.324;8.032;2023-03-24T04:30:40;5.25;;;3.28;;
60344;SDS011;46188;52.324;8.032;2023-03-24T04:33:12;4.85;;;3.58;;
60344;SDS011;46188;52.324;8.032;2023-03-24T04:35:44;3.70;;;2.85;;
60344;SDS011;46188;52.324;8.032;2023-03-24T04:38:14;4.22;;;3.00;;
60344;SDS011;46188;52.324;8.032;2023-03-24T04:40:43;4.60;;;3.25;;
60344;SDS011;46188;52.324;8.032;2023-03-24T04:43:13;3.50;;;3.20;;
60344;SDS011;46188;52.324;8.032;2023-03-24T04:45:42;4.60;;;3.40;;
60344;SDS011;46188;52.324;8.032;2023-03-24T04:48:13;4.95;;;3.72;;
60344;SDS011;46188;52.324;8.032;2023-03-24T04:50:42;4.57;;;3.47;;
60344;SDS011;46188;52.324;8.032;2023-03-24T04:53:12;4.10;;;3.70;;
60344;SDS011;46188;52.324;8.032;2023-03-24T04:58:33;5.75;;;4.10;;
60344;SDS011;46188;52.324;8.032;2023-03-24T05:00:59;4.63;;;3.92;;
60344;SDS011;46188;52.324;8.032;2023-03-24T05:03:24;4.70;;;4.20;;
60344;SDS011;46188;52.324;8.032;2023-03-24T05:05:50;8.02;;;4.55;;
60344;SDS011;46188;52.324;8.032;2023-03-24T05:08:16;4.65;;;4.00;;
60344;SDS011;46188;52.324;8.032;2023-03-24T05:10:42;6.35;;;5.00;;
60344;SDS011;46188;52.324;8.032;2023-03-24T05:13:08;5.38;;;4.80;;
60344;SDS011;46188;52.324;8.032;2023-03-24T05:15:34;4.88;;;3.67;;
60344;SDS011;46188;52.324;8.032;2023-03-24T05:18:00;5.05;;;4.45;;
60344;SDS011;46188;52.324;8.032;2023-03-24T05:20:25;5.13;;;4.63;;
60344;SDS011;46188;52.324;8.032;2023-03-24T05:22:51;3.08;;;2.28;;
60344;SDS011;46188;52.324;8.032;2023-03-24T05:25:17;3.67;;;2.30;;
60344;SDS011;46188;52.324;8.032;2023-03-24T05:27:43;2.30;;;1.73;;
60344;SDS011;46188;52.324;8.032;2023-03-24T05:30:09;2.78;;;1.77;;
60344;SDS011;46188;52.324;8.032;2023-03-24T05:32:35;2.50;;;1.50;;
60344;SDS011;46188;52.324;8.032;2023-03-24T05:35:00;2.10;;;1.80;;
60344;SDS011;46188;52.324;8.032;2023-03-24T05:37:25;3.00;;;1.95;;
60344;SDS011;46188;52.324;8.032;2023-03-24T05:39:51;3.25;;;1.52;;
60344;SDS011;46188;52.324;8.032;2023-03-24T05:42:17;2.55;;;1.90;;
60344;SDS011;46188;52.324;8.032;2023-03-24T05:44:42;3.92;;;1.90;;
60344;SDS011;46188;52.324;8.032;2023-03-24T05:47:08;2.70;;;1.73;;
60344;SDS011;46188;52.324;8.032;2023-03-24T05:49:34;3.85;;;1.83;;
60344;SDS011;46188;52.324;8.032;2023-03-24T05:52:00;2.45;;;1.42;;
60344;SDS011;46188;52.324;8.032;2023-03-24T05:54:26;2.70;;;1.83;;
60344;SDS011;46188;52.324;8.032;2023-03-24T05:56:51;3.33;;;2.15;;
60344;SDS011;46188;52.324;8.032;2023-03-24T05:59:16;2.38;;;1.90;;
60344;SDS011;46188;52.324;8.032;2023-03-24T06:01:42;2.40;;;1.70;;
60344;SDS011;46188;52.324;8.032;2023-03-24T06:04:07;4.80;;;1.77;;
60344;SDS011;46188;52.324;8.032;2023-03-24T06:06:33;2.72;;;1.58;;
60344;SDS011;46188;52.324;8.032;2023-03-24T06:08:58;2.42;;;1.65;;
60344;SDS011;46188;52.324;8.032;2023-03-24T06:11:26;3.28;;;1.73;;
60344;SDS011;46188;52.324;8.032;2023-03-24T06:13:52;4.25;;;1.90;;
60344;SDS011;46188;52.324;8.032;2023-03-24T06:16:17;2.10;;;1.00;;
60344;SDS011;46188;52.324;8.032;2023-03-24T06:18:47;1.88;;;1.10;;
60344;SDS011;46188;52.324;8.032;2023-03-24T06:21:16;4.43;;;1.83;;
60344;SDS011;46188;52.324;8.032;2023-03-24T06:23:42;3.40;;;1.38;;
60344;SDS011;46188;52.324;8.032;2023-03-24T06:26:08;3.22;;;1.40;;
60344;SDS011;46188;52.324;8.032;2023-03-24T06:28:36;2.28;;;1.50;;
60344;SDS011;46188;52.324;8.032;2023-03-24T06:31:04;2.33;;;1.20;;
60344;SDS011;46188;52.324;8.032;2023-03-24T06:33:30;3.75;;;2.53;;
60344;SDS011;46188;52.324;8.032;2023-03-24T06:35:55;3.97;;;1.52;;
60344;SDS011;46188;52.324;8.032;2023-03-24T06:38:20;1.98;;;1.20;;
60344;SDS011;46188;52.324;8.032;2023-03-24T06:40:46;5.10;;;1.65;;
60344;SDS011;46188;52.324;8.032;2023-03-24T06:43:11;5.43;;;1.50;;
60344;SDS011;46188;52.324;8.032;2023-03-24T06:45:36;4.65;;;1.40;;
60344;SDS011;46188;52.324;8.032;2023-03-24T06:48:03;3.63;;;1.92;;
60344;SDS011;46188;52.324;8.032;2023-03-24T06:50:28;3.78;;;1.30;;
60344;SDS011;46188;52.324;8.032;2023-03-24T06:52:57;3.92;;;1.42;;
60344;SDS011;46188;52.324;8.032;2023-03-24T06:55:23;4.00;;;1.23;;
60344;SDS011;46188;52.324;8.032;2023-03-24T06:57:48;3.47;;;1.35;;
60344;SDS011;46188;52.324;8.032;2023-03-24T07:00:13;2.70;;;1.27;;
60344;SDS011;46188;52.324;8.032;2023-03-24T07:02:40;7.68;;;1.50;;
60344;SDS011;46188;52.324;8.032;2023-03-24T07:05:06;6.93;;;2.25;;
60344;SDS011;46188;52.324;8.032;2023-03-24T07:07:34;3.72;;;1.38;;
60344;SDS011;46188;52.324;8.032;2023-03-24T07:09:59;3.65;;;1.50;;
60344;SDS011;46188;52.324;8.032;2023-03-24T07:12:25;4.15;;;1.38;;
60344;SDS011;46188;52.324;8.032;2023-03-24T07:14:50;4.13;;;1.58;;
60344;SDS011;46188;52.324;8.032;2023-03-24T07:17:16;8.50;;;2.03;;
60344;SDS011;46188;52.324;8.032;2023-03-24T07:19:41;5.93;;;1.85;;
60344;SDS011;46188;52.324;8.032;2023-03-24T07:22:06;4.18;;;1.30;;
60344;SDS011;46188;52.324;8.032;2023-03-24T07:24:32;4.82;;;1.52;;
60344;SDS011;46188;52.324;8.032;2023-03-24T07:26:58;5.00;;;1.70;;
60344;SDS011;46188;52.324;8.032;2023-03-24T07:29:24;9.55;;;1.73;;
60344;SDS011;46188;52.324;8.032;2023-03-24T07:31:49;8.90;;;2.05;;
60344;SDS011;46188;52.324;8.032;2023-03-24T07:34:14;4.97;;;1.40;;
60344;SDS011;46188;52.324;8.032;2023-03-24T07:36:40;6.22;;;1.65;;
60344;SDS011;46188;52.324;8.032;2023-03-24T07:39:05;6.78;;;3.15;;
60344;SDS011;46188;52.324;8.032;2023-03-24T07:41:30;5.38;;;2.08;;
60344;SDS011;46188;52.324;8.032;2023-03-24T07:43:56;5.85;;;1.80;;
60344;SDS011;46188;52.324;8.032;2023-03-24T07:46:21;13.38;;;2.22;;
60344;SDS011;46188;52.324;8.032;2023-03-24T07:48:47;12.50;;;2.45;;
60344;SDS011;46188;52.324;8.032;2023-03-24T07:51:12;9.50;;;2.33;;
60344;SDS011;46188;52.324;8.032;2023-03-24T07:53:37;12.80;;;2.63;;
60344;SDS011;46188;52.324;8.032;2023-03-24T07:56:02;9.88;;;2.55;;
60344;SDS011;46188;52.324;8.032;2023-03-24T07:58:28;8.25;;;2.08;;
60344;SDS011;46188;52.324;8.032;2023-03-24T08:00:53;7.88;;;2.42;;
60344;SDS011;46188;52.324;8.032;2023-03-24T08:03:18;9.40;;;2.20;;
60344;SDS011;46188;52.324;8.032;2023-03-24T08:05:49;6.47;;;2.20;;
60344;SDS011;46188;52.324;8.032;2023-03-24T08:08:14;9.65;;;2.90;;
60344;SDS011;46188;52.324;8.032;2023-03-24T08:10:40;11.38;;;3.17;;
60344;SDS011;46188;52.324;8.032;2023-03-24T08:13:06;9.15;;;2.95;;
60344;SDS011;46188;52.324;8.032;2023-03-24T08:15:31;11.60;;;2.78;;
60344;SDS011;46188;52.324;8.032;2023-03-24T08:17:57;9.55;;;2.60;;
60344;SDS011;46188;52.324;8.032;2023-03-24T08:20:22;11.18;;;2.88;;
60344;SDS011;46188;52.324;8.032;2023-03-24T08:22:50;9.75;;;3.33;;
60344;SDS011;46188;52.324;8.032;2023-03-24T08:25:18;7.90;;;2.45;;
60344;SDS011;46188;52.324;8.032;2023-03-24T08:27:45;6.82;;;3.10;;
60344;SDS011;46188;52.324;8.032;2023-03-24T08:30:18;6.30;;;2.35;;
60344;SDS011;46188;52.324;8.032;2023-03-24T08:32:46;6.57;;;3.42;;
60344;SDS011;46188;52.324;8.032;2023-03-24T08:35:13;5.95;;;2.38;;
60344;SDS011;46188;52.324;8.032;2023-03-24T08:37:40;6.15;;;2.80;;
60344;SDS011;46188;52.324;8.032;2023-03-24T08:40:10;8.88;;;2.97;;
60344;SDS011;46188;52.324;8.032;2023-03-24T08:42:39;6.68;;;2.53;;
60344;SDS011;46188;52.324;8.032;2023-03-24T08:45:05;5.93;;;2.13;;
60344;SDS011;46188;52.324;8.032;2023-03-24T08:47:31;7.05;;;2.60;;
60344;SDS011;46188;52.324;8.032;2023-03-24T08:49:56;4.72;;;2.47;;
60344;SDS011;46188;52.324;8.032;2023-03-24T08:52:22;6.13;;;2.38;;
60344;SDS011;46188;52.324;8.032;2023-03-24T08:54:47;7.35;;;2.45;;
60344;SDS011;46188;52.324;8.032;2023-03-24T08:57:13;12.55;;;2.70;;
60344;SDS011;46188;52.324;8.032;2023-03-24T08:59:38;8.40;;;2.15;;
60344;SDS011;46188;52.324;8.032;2023-03-24T09:02:03;6.82;;;2.25;;
60344;SDS011;46188;52.324;8.032;2023-03-24T09:04:29;7.47;;;3.38;;
60344;SDS011;46188;52.324;8.032;2023-03-24T09:06:54;6.50;;;2.90;;
60344;SDS011;46188;52.324;8.032;2023-03-24T09:09:24;8.73;;;2.58;;
60344;SDS011;46188;52.324;8.032;2023-03-24T09:11:49;7.40;;;3.38;;
60344;SDS011;46188;52.324;8.032;2023-03-24T09:14:15;10.07;;;3.55;;
60344;SDS011;46188;52.324;8.032;2023-03-24T09:16:40;9.05;;;2.92;;
60344;SDS011;46188;52.324;8.032;2023-03-24T09:19:07;8.40;;;3.40;;
60344;SDS011;46188;52.324;8.032;2023-03-24T09:21:33;5.65;;;2.78;;
60344;SDS011;46188;52.324;8.032;2023-03-24T09:23:58;10.15;;;3.17;;
60344;SDS011;46188;52.324;8.032;2023-03-24T09:26:23;10.00;;;3.35;;
60344;SDS011;46188;52.324;8.032;2023-03-24T09:28:49;10.38;;;3.63;;
60344;SDS011;46188;52.324;8.032;2023-03-24T09:31:14;9.10;;;3.70;;
60344;SDS011;46188;52.324;8.032;2023-03-24T09:33:39;7.35;;;2.60;;
60344;SDS011;46188;52.324;8.032;2023-03-24T09:36:05;6.30;;;3.10;;
60344;SDS011;46188;52.324;8.032;2023-03-24T09:38:31;9.30;;;2.88;;
60344;SDS011;46188;52.324;8.032;2023-03-24T09:40:59;6.65;;;3.08;;
60344;SDS011;46188;52.324;8.032;2023-03-24T09:43:30;7.25;;;2.55;;
60344;SDS011;46188;52.324;8.032;2023-03-24T09:46:01;6.38;;;2.65;;
60344;SDS011;46188;52.324;8.032;2023-03-24T09:48:37;5.13;;;2.75;;
60344;SDS011;46188;52.324;8.032;2023-03-24T09:51:11;6.82;;;2.70;;
60344;SDS011;46188;52.324;8.032;2023-03-24T09:56:23;5.20;;;2.63;;
60344;SDS011;46188;52.324;8.032;2023-03-24T09:59:12;5.50;;;2.22;;
60344;SDS011;46188;52.324;8.032;2023-03-24T10:01:56;8.13;;;2.92;;
60344;SDS011;46188;52.324;8.032;2023-03-24T10:04:23;8.07;;;2.60;;
60344;SDS011;46188;52.324;8.032;2023-03-24T10:06:55;8.32;;;2.33;;
60344;SDS011;46188;52.324;8.032;2023-03-24T10:09:28;3.80;;;2.50;;
60344;SDS011;46188;52.324;8.032;2023-03-24T10:11:59;12.20;;;2.70;;
60344;SDS011;46188;52.324;8.032;2023-03-24T10:14:45;7.13;;;2.67;;
60344;SDS011;46188;52.324;8.032;2023-03-24T10:26:02;4.32;;;2.03;;
60344;SDS011;46188;52.324;8.032;2023-03-24T10:31:09;8.07;;;2.63;;
60344;SDS011;46188;52.324;8.032;2023-03-24T10:33:37;5.57;;;2.40;;
60344;SDS011;46188;52.324;8.032;2023-03-24T10:36:16;8.55;;;3.05;;
60344;SDS011;46188;52.324;8.032;2023-03-24T10:38:44;8.05;;;2.35;;
60344;SDS011;46188;52.324;8.032;2023-03-24T10:41:19;7.35;;;2.45;;
60344;SDS011;46188;52.324;8.032;2023-03-24T10:43:47;6.70;;;2.58;;
60344;SDS011;46188;52.324;8.032;2023-03-24T10:46:16;7.07;;;2.17;;
60344;SDS011;46188;52.324;8.032;2023-03-24T10:48:45;8.70;;;2.53;;
60344;SDS011;46188;52.324;8.032;2023-03-24T10:51:33;7.82;;;2.47;;
60344;SDS011;46188;52.324;8.032;2023-03-24T10:54:20;4.60;;;2.00;;
60344;SDS011;46188;52.324;8.032;2023-03-24T10:56:50;8.82;;;2.63;;
60344;SDS011;46188;52.324;8.032;2023-03-24T11:01:55;7.00;;;2.30;;
60344;SDS011;46188;52.324;8.032;2023-03-24T11:04:22;7.65;;;2.22;;
60344;SDS011;46188;52.324;8.032;2023-03-24T11:07:12;9.05;;;3.20;;
60344;SDS011;46188;52.324;8.032;2023-03-24T11:09:42;9.60;;;3.15;;
60344;SDS011;46188;52.324;8.032;2023-03-24T11:12:25;6.50;;;2.20;;
60344;SDS011;46188;52.324;8.032;2023-03-24T11:14:59;7.80;;;1.98;;
60344;SDS011;46188;52.324;8.032;2023-03-24T11:17:27;10.57;;;2.13;;
60344;SDS011;46188;52.324;8.032;2023-03-24T11:19:53;7.30;;;1.88;;
60344;SDS011;46188;52.324;8.032;2023-03-24T11:22:20;8.82;;;2.45;;
60344;SDS011;46188;52.324;8.032;2023-03-24T11:24:54;5.75;;;2.28;;
60344;SDS011;46188;52.324;8.032;2023-03-24T11:27:20;7.68;;;2.00;;
60344;SDS011;46188;52.324;8.032;2023-03-24T11:29:52;8.85;;;1.98;;
60344;SDS011;46188;52.324;8.032;2023-03-24T11:32:23;5.05;;;2.05;;
60344;SDS011;46188;52.324;8.032;2023-03-24T11:34:59;5.60;;;2.03;;
60344;SDS011;46188;52.324;8.032;2023-03-24T11:37:30;10.18;;;2.75;;
60344;SDS011;46188;52.324;8.032;2023-03-24T11:40:14;7.95;;;1.73;;
60344;SDS011;46188;52.324;8.032;2023-03-24T11:42:46;4.85;;;1.85;;
60344;SDS011;46188;52.324;8.032;2023-03-24T11:45:22;7.10;;;1.80;;
60344;SDS011;46188;52.324;8.032;2023-03-24T11:47:51;7.57;;;1.90;;
60344;SDS011;46188;52.324;8.032;2023-03-24T11:50:22;6.82;;;1.80;;
60344;SDS011;46188;52.324;8.032;2023-03-24T11:53:38;4.72;;;1.77;;
60344;SDS011;46188;52.324;8.032;2023-03-24T11:55:47;5.00;;;2.80;;
60344;SDS011;46188;52.324;8.032;2023-03-24T11:58:23;4.03;;;1.75;;
60344;SDS011;46188;52.324;8.032;2023-03-24T12:03:44;6.32;;;2.35;;
60344;SDS011;46188;52.324;8.032;2023-03-24T12:06:23;5.85;;;1.65;;
60344;SDS011;46188;52.324;8.032;2023-03-24T12:12:28;8.40;;;2.33;;
60344;SDS011;46188;52.324;8.032;2023-03-24T12:17:41;7.40;;;1.95;;
60344;SDS011;46188;52.324;8.032;2023-03-24T12:20:29;5.85;;;2.30;;
60344;SDS011;46188;52.324;8.032;2023-03-24T12:23:02;4.07;;;1.90;;
60344;SDS011;46188;52.324;8.032;2023-03-24T12:28:27;4.22;;;1.77;;
60344;SDS011;46188;52.324;8.032;2023-03-24T12:36:58;5.07;;;2.00;;
60344;SDS011;46188;52.324;8.032;2023-03-24T12:39:31;8.60;;;2.42;;
60344;SDS011;46188;52.324;8.032;2023-03-24T12:42:05;7.28;;;1.80;;
60344;SDS011;46188;52.324;8.032;2023-03-24T12:44:41;6.47;;;1.98;;
60344;SDS011;46188;52.324;8.032;2023-03-24T12:50:08;5.78;;;2.50;;
60344;SDS011;46188;52.324;8.032;2023-03-24T12:58:22;4.05;;;1.80;;
60344;SDS011;46188;52.324;8.032;2023-03-24T13:01:00;3.63;;;1.85;;
60344;SDS011;46188;52.324;8.032;2023-03-24T13:03:39;6.38;;;1.92;;
60344;SDS011;46188;52.324;8.032;2023-03-24T13:06:22;7.63;;;1.50;;
60344;SDS011;46188;52.324;8.032;2023-03-24T13:09:03;6.80;;;1.60;;
60344;SDS011;46188;52.324;8.032;2023-03-24T13:14:54;4.70;;;2.28;;
60344;SDS011;46188;52.324;8.032;2023-03-24T13:17:26;2.45;;;1.30;;
60344;SDS011;46188;52.324;8.032;2023-03-24T13:20:03;3.90;;;1.95;;
60344;SDS011;46188;52.324;8.032;2023-03-24T13:22:31;3.97;;;1.52;;
60344;SDS011;46188;52.324;8.032;2023-03-24T13:24:58;4.18;;;1.63;;
60344;SDS011;46188;52.324;8.032;2023-03-24T13:27:31;2.75;;;1.10;;
60344;SDS011;46188;52.324;8.032;2023-03-24T13:30:22;1.95;;;1.15;;
60344;SDS011;46188;52.324;8.032;2023-03-24T13:32:57;3.65;;;1.08;;
60344;SDS011;46188;52.324;8.032;2023-03-24T13:38:06;2.45;;;1.13;;
60344;SDS011;46188;52.324;8.032;2023-03-24T13:40:40;3.15;;;1.30;;
60344;SDS011;46188;52.324;8.032;2023-03-24T13:43:16;1.63;;;1.05;;
60344;SDS011;46188;52.324;8.032;2023-03-24T13:45:57;3.05;;;1.30;;
60344;SDS011;46188;52.324;8.032;2023-03-24T13:48:43;3.13;;;1.25;;
60344;SDS011;46188;52.324;8.032;2023-03-24T13:51:24;3.60;;;1.42;;
60344;SDS011;46188;52.324;8.032;2023-03-24T13:53:53;2.85;;;1.35;;
60344;SDS011;46188;52.324;8.032;2023-03-24T14:01:30;3.40;;;1.30;;
60344;SDS011;46188;52.324;8.032;2023-03-24T14:04:24;2.45;;;1.38;;
60344;SDS011;46188;52.324;8.032;2023-03-24T14:06:52;6.47;;;2.15;;
60344;SDS011;46188;52.324;8.032;2023-03-24T14:09:29;5.78;;;1.80;;
60344;SDS011;46188;52.324;8.032;2023-03-24T14:14:28;3.17;;;1.45;;
60344;SDS011;46188;52.324;8.032;2023-03-24T14:19:35;3.30;;;1.40;;
60344;SDS011;46188;52.324;8.032;2023-03-24T14:24:56;3.95;;;1.50;;
60344;SDS011;46188;52.324;8.032;2023-03-24T14:27:31;3.72;;;1.60;;
60344;SDS011;46188;52.324;8.032;2023-03-24T14:30:24;3.03;;;1.33;;
60344;SDS011;46188;52.324;8.032;2023-03-24T14:32:54;4.32;;;1.52;;
60344;SDS011;46188;52.324;8.032;2023-03-24T14:35:41;4.35;;;1.50;;
60344;SDS011;46188;52.324;8.032;2023-03-24T14:40:38;5.80;;;1.60;;
60344;SDS011;46188;52.324;8.032;2023-03-24T14:43:15;4.28;;;2.00;;
60344;SDS011;46188;52.324;8.032;2023-03-24T14:48:36;4.20;;;1.35;;
60344;SDS011;46188;52.324;8.032;2023-03-24T14:51:51;2.65;;;1.25;;
60344;SDS011;46188;52.324;8.032;2023-03-24T14:53:52;4.13;;;1.50;;
60344;SDS011;46188;52.324;8.032;2023-03-24T14:56:21;5.15;;;1.50;;
60344;SDS011;46188;52.324;8.032;2023-03-24T14:58:47;3.08;;;1.00;;
60344;SDS011;46188;52.324;8.032;2023-03-24T15:01:19;1.60;;;0.90;;
60344;SDS011;46188;52.324;8.032;2023-03-24T15:03:53;4.47;;;1.30;;
60344;SDS011;46188;52.324;8.032;2023-03-24T15:06:25;3.65;;;0.82;;
60344;SDS011;46188;52.324;8.032;2023-03-24T15:08:51;3.60;;;0.88;;
60344;SDS011;46188;52.324;8.032;2023-03-24T15:11:20;1.80;;;0.80;;
60344;SDS011;46188;52.324;8.032;2023-03-24T15:13:51;1.92;;;0.80;;
60344;SDS011;46188;52.324;8.032;2023-03-24T15:18:46;1.42;;;0.90;;
60344;SDS011;46188;52.324;8.032;2023-03-24T15:21:15;2.03;;;0.90;;
60344;SDS011;46188;52.324;8.032;2023-03-24T15:23:46;2.35;;;1.10;;
60344;SDS011;46188;52.324;8.032;2023-03-24T15:26:12;0.90;;;0.77;;
60344;SDS011;46188;52.324;8.032;2023-03-24T15:28:39;1.45;;;0.90;;
60344;SDS011;46188;52.324;8.032;2023-03-24T15:31:04;2.97;;;1.00;;
60344;SDS011;46188;52.324;8.032;2023-03-24T15:33:37;1.55;;;0.88;;
60344;SDS011;46188;52.324;8.032;2023-03-24T15:36:07;3.00;;;1.10;;
60344;SDS011;46188;52.324;8.032;2023-03-24T15:38:38;2.13;;;0.88;;
60344;SDS011;46188;52.324;8.032;2023-03-24T15:41:10;2.58;;;1.30;;
60344;SDS011;46188;52.324;8.032;2023-03-24T15:43:42;2.85;;;0.90;;
60344;SDS011;46188;52.324;8.032;2023-03-24T15:46:18;4.85;;;1.17;;
60344;SDS011;46188;52.324;8.032;2023-03-24T15:48:44;4.22;;;1.20;;
60344;SDS011;46188;52.324;8.032;2023-03-24T15:51:10;2.42;;;1.23;;
60344;SDS011;46188;52.324;8.032;2023-03-24T15:53:47;2.75;;;1.10;;
60344;SDS011;46188;52.324;8.032;2023-03-24T15:56:27;2.80;;;1.10;;
60344;SDS011;46188;52.324;8.032;2023-03-24T16:01:29;2.70;;;1.20;;
60344;SDS011;46188;52.324;8.032;2023-03-24T16:03:59;4.15;;;1.13;;
60344;SDS011;46188;52.324;8.032;2023-03-24T16:06:35;2.30;;;1.40;;
60344;SDS011;46188;52.324;8.032;2023-03-24T16:09:05;1.90;;;1.10;;
60344;SDS011;46188;52.324;8.032;2023-03-24T16:11:34;3.20;;;1.23;;
60344;SDS011;46188;52.324;8.032;2023-03-24T16:13:59;3.47;;;1.33;;
60344;SDS011;46188;52.324;8.032;2023-03-24T16:16:34;4.35;;;2.58;;
60344;SDS011;46188;52.324;8.032;2023-03-24T16:19:02;4.10;;;1.45;;
60344;SDS011;46188;52.324;8.032;2023-03-24T16:21:28;3.78;;;1.60;;
60344;SDS011;46188;52.324;8.032;2023-03-24T16:23:54;3.40;;;1.48;;
60344;SDS011;46188;52.324;8.032;2023-03-24T16:26:22;3.10;;;1.30;;
60344;SDS011;46188;52.324;8.032;2023-03-24T16:28:48;3.00;;;1.20;;
60344;SDS011;46188;52.324;8.032;2023-03-24T16:31:20;2.58;;;1.10;;
60344;SDS011;46188;52.324;8.032;2023-03-24T16:33:49;2.08;;;1.05;;
60344;SDS011;46188;52.324;8.032;2023-03-24T16:36:18;4.97;;;1.88;;
60344;SDS011;46188;52.324;8.032;2023-03-24T16:38:46;4.50;;;1.27;;
60344;SDS011;46188;52.324;8.032;2023-03-24T16:41:12;2.67;;;1.00;;
60344;SDS011;46188;52.324;8.032;2023-03-24T16:43:41;2.00;;;1.10;;
60344;SDS011;46188;52.324;8.032;2023-03-24T16:46:14;3.83;;;1.30;;
60344;SDS011;46188;52.324;8.032;2023-03-24T16:48:41;2.35;;;1.10;;
60344;SDS011;46188;52.324;8.032;2023-03-24T16:51:11;1.45;;;1.00;;
60344;SDS011;46188;52.324;8.032;2023-03-24T16:53:38;3.03;;;1.15;;
60344;SDS011;46188;52.324;8.032;2023-03-24T16:56:04;2.85;;;0.90;;
60344;SDS011;46188;52.324;8.032;2023-03-24T16:58:30;1.90;;;1.08;;